sensor_id;sensor_type;location;lat;lon;timestamp;temperature;humidity
22426;DHT22;11380;50.822;15.790;2023-03-18T00:02:36;5.80;1.00
22426;DHT22;11380;50.822;15.790;2023-03-18T00:07:45;5.70;1.00
22426;DHT22;11380;50.822;15.790;2023-03-18T00:12:51;5.80;1.00
22426;DHT22;11380;50.822;15.790;2023-03-18T00:18:00;5.90;1.00
22426;DHT22;11380;50.822;15.790;2023-03-18T00:23:08;5.70;1.00
22426;DHT22;11380;50.822;15.790;2023-03-18T00:28:15;5.80;1.00
22426;DHT22;11380;50.822;15.790;2023-03-18T00:33:23;5.80;1.00
22426;DHT22;11380;50.822;15.790;2023-03-18T00:38:30;5.70;1.00
22426;DHT22;11380;50.822;15.790;2023-03-18T00:43:39;5.50;1.00
22426;DHT22;11380;50.822;15.790;2023-03-18T00:48:52;5.50;1.00
22426;DHT22;11380;50.822;15.790;2023-03-18T00:54:03;5.80;1.00
22426;DHT22;11380;50.822;15.790;2023-03-18T00:59:12;5.90;1.00
22426;DHT22;11380;50.822;15.790;2023-03-18T01:04:20;6.00;1.00
22426;DHT22;11380;50.822;15.790;2023-03-18T01:09:26;5.90;1.00
22426;DHT22;11380;50.822;15.790;2023-03-18T01:14:35;5.90;1.00
22426;DHT22;11380;50.822;15.790;2023-03-18T01:19:43;5.80;1.00
22426;DHT22;11380;50.822;15.790;2023-03-18T01:24:52;5.80;1.00
22426;DHT22;11380;50.822;15.790;2023-03-18T01:29:59;5.90;1.00
22426;DHT22;11380;50.822;15.790;2023-03-18T01:35:08;5.40;1.00
22426;DHT22;11380;50.822;15.790;2023-03-18T01:40:16;4.90;1.00
22426;DHT22;11380;50.822;15.790;2023-03-18T01:45:28;5.30;1.00
22426;DHT22;11380;50.822;15.790;2023-03-18T01:50:37;5.30;1.00
22426;DHT22;11380;50.822;15.790;2023-03-18T01:55:46;5.40;1.00
22426;DHT22;11380;50.822;15.790;2023-03-18T02:01:01;5.60;1.00
22426;DHT22;11380;50.822;15.790;2023-03-18T02:06:11;4.80;1.00
22426;DHT22;11380;50.822;15.790;2023-03-18T02:11:18;4.90;1.00
22426;DHT22;11380;50.822;15.790;2023-03-18T02:16:29;4.70;1.00
22426;DHT22;11380;50.822;15.790;2023-03-18T02:21:54;4.80;1.00
22426;DHT22;11380;50.822;15.790;2023-03-18T02:27:23;5.10;1.00
22426;DHT22;11380;50.822;15.790;2023-03-18T02:32:31;5.10;1.00
22426;DHT22;11380;50.822;15.790;2023-03-18T02:37:40;4.80;1.00
22426;DHT22;11380;50.822;15.790;2023-03-18T02:42:47;4.60;1.00
22426;DHT22;11380;50.822;15.790;2023-03-18T02:47:54;4.70;1.00
22426;DHT22;11380;50.822;15.790;2023-03-18T02:53:04;4.00;1.00
22426;DHT22;11380;50.822;15.790;2023-03-18T02:58:12;3.40;1.00
22426;DHT22;11380;50.822;15.790;2023-03-18T03:03:21;3.20;1.00
22426;DHT22;11380;50.822;15.790;2023-03-18T03:08:29;3.30;99.90
22426;DHT22;11380;50.822;15.790;2023-03-18T03:13:40;3.10;99.90
22426;DHT22;11380;50.822;15.790;2023-03-18T03:18:50;3.40;99.90
22426;DHT22;11380;50.822;15.790;2023-03-18T03:23:57;3.30;99.90
22426;DHT22;11380;50.822;15.790;2023-03-18T03:29:05;2.90;99.90
22426;DHT22;11380;50.822;15.790;2023-03-18T03:34:12;3.00;99.90
22426;DHT22;11380;50.822;15.790;2023-03-18T03:39:20;2.60;99.90
22426;DHT22;11380;50.822;15.790;2023-03-18T03:44:27;2.90;99.90
22426;DHT22;11380;50.822;15.790;2023-03-18T03:49:35;2.50;99.90
22426;DHT22;11380;50.822;15.790;2023-03-18T03:54:43;2.50;99.90
22426;DHT22;11380;50.822;15.790;2023-03-18T03:59:51;2.70;99.90
22426;DHT22;11380;50.822;15.790;2023-03-18T04:04:59;2.80;99.90
22426;DHT22;11380;50.822;15.790;2023-03-18T04:10:07;2.40;99.90
22426;DHT22;11380;50.822;15.790;2023-03-18T04:15:16;2.60;6.40
22426;DHT22;11380;50.822;15.790;2023-03-18T04:20:25;2.70;1.00
22426;DHT22;11380;50.822;15.790;2023-03-18T04:25:33;2.90;1.00
22426;DHT22;11380;50.822;15.790;2023-03-18T04:30:40;2.80;1.00
22426;DHT22;11380;50.822;15.790;2023-03-18T04:35:47;2.80;1.00
22426;DHT22;11380;50.822;15.790;2023-03-18T04:40:54;2.30;1.00
22426;DHT22;11380;50.822;15.790;2023-03-18T04:46:02;2.50;1.00
22426;DHT22;11380;50.822;15.790;2023-03-18T04:51:08;2.30;1.00
22426;DHT22;11380;50.822;15.790;2023-03-18T04:56:17;2.40;99.90
22426;DHT22;11380;50.822;15.790;2023-03-18T05:01:24;2.30;1.00
22426;DHT22;11380;50.822;15.790;2023-03-18T05:06:30;2.60;1.00
22426;DHT22;11380;50.822;15.790;2023-03-18T05:11:37;2.40;1.00
22426;DHT22;11380;50.822;15.790;2023-03-18T05:16:44;2.50;75.00
22426;DHT22;11380;50.822;15.790;2023-03-18T05:21:51;2.30;99.90
22426;DHT22;11380;50.822;15.790;2023-03-18T05:26:58;2.30;1.00
22426;DHT22;11380;50.822;15.790;2023-03-18T05:32:06;2.40;1.00
22426;DHT22;11380;50.822;15.790;2023-03-18T05:37:14;2.50;99.90
22426;DHT22;11380;50.822;15.790;2023-03-18T05:42:22;2.70;99.90
22426;DHT22;11380;50.822;15.790;2023-03-18T05:47:29;2.50;99.90
22426;DHT22;11380;50.822;15.790;2023-03-18T05:52:38;2.80;25.30
22426;DHT22;11380;50.822;15.790;2023-03-18T05:57:45;2.70;99.90
22426;DHT22;11380;50.822;15.790;2023-03-18T06:02:55;2.90;99.90
22426;DHT22;11380;50.822;15.790;2023-03-18T06:08:02;3.00;99.90
22426;DHT22;11380;50.822;15.790;2023-03-18T06:13:13;3.00;99.90
22426;DHT22;11380;50.822;15.790;2023-03-18T06:18:21;3.30;99.90
22426;DHT22;11380;50.822;15.790;2023-03-18T06:23:27;3.20;99.90
22426;DHT22;11380;50.822;15.790;2023-03-18T06:28:35;3.40;96.50
22426;DHT22;11380;50.822;15.790;2023-03-18T06:33:42;3.80;1.00
22426;DHT22;11380;50.822;15.790;2023-03-18T06:38:51;3.70;1.00
22426;DHT22;11380;50.822;15.790;2023-03-18T06:43:57;3.90;1.00
22426;DHT22;11380;50.822;15.790;2023-03-18T06:49:05;4.00;1.00
22426;DHT22;11380;50.822;15.790;2023-03-18T06:54:14;4.10;1.00
22426;DHT22;11380;50.822;15.790;2023-03-18T06:59:22;4.20;1.00
22426;DHT22;11380;50.822;15.790;2023-03-18T07:04:29;4.40;99.90
22426;DHT22;11380;50.822;15.790;2023-03-18T07:09:37;4.70;99.90
22426;DHT22;11380;50.822;15.790;2023-03-18T07:14:44;4.90;99.90
22426;DHT22;11380;50.822;15.790;2023-03-18T07:19:52;5.50;99.90
22426;DHT22;11380;50.822;15.790;2023-03-18T07:24:59;6.10;1.00
22426;DHT22;11380;50.822;15.790;2023-03-18T07:30:05;7.30;99.90
22426;DHT22;11380;50.822;15.790;2023-03-18T07:35:15;8.10;1.00
22426;DHT22;11380;50.822;15.790;2023-03-18T07:40:22;8.70;1.00
22426;DHT22;11380;50.822;15.790;2023-03-18T07:45:32;8.90;11.70
22426;DHT22;11380;50.822;15.790;2023-03-18T07:50:39;9.40;99.90
22426;DHT22;11380;50.822;15.790;2023-03-18T07:55:45;9.60;32.90
22426;DHT22;11380;50.822;15.790;2023-03-18T08:00:51;9.70;99.90
22426;DHT22;11380;50.822;15.790;2023-03-18T08:05:59;9.70;99.90
22426;DHT22;11380;50.822;15.790;2023-03-18T08:11:08;9.90;99.90
22426;DHT22;11380;50.822;15.790;2023-03-18T08:16:15;10.30;99.90
22426;DHT22;11380;50.822;15.790;2023-03-18T08:21:22;10.40;99.90
22426;DHT22;11380;50.822;15.790;2023-03-18T08:26:29;10.60;99.90
22426;DHT22;11380;50.822;15.790;2023-03-18T08:31:35;11.10;99.90
22426;DHT22;11380;50.822;15.790;2023-03-18T08:36:42;11.60;99.90
22426;DHT22;11380;50.822;15.790;2023-03-18T08:41:49;11.50;99.90
22426;DHT22;11380;50.822;15.790;2023-03-18T08:46:56;11.50;99.90
22426;DHT22;11380;50.822;15.790;2023-03-18T08:52:03;11.70;99.90
22426;DHT22;11380;50.822;15.790;2023-03-18T08:57:10;12.30;99.90
22426;DHT22;11380;50.822;15.790;2023-03-18T09:02:17;12.60;99.90
22426;DHT22;11380;50.822;15.790;2023-03-18T09:07:24;13.00;99.90
22426;DHT22;11380;50.822;15.790;2023-03-18T09:12:32;13.50;99.90
22426;DHT22;11380;50.822;15.790;2023-03-18T09:17:40;13.70;99.90
22426;DHT22;11380;50.822;15.790;2023-03-18T09:22:50;13.70;99.90
22426;DHT22;11380;50.822;15.790;2023-03-18T09:27:57;13.50;99.90
22426;DHT22;11380;50.822;15.790;2023-03-18T09:33:05;13.30;99.90
22426;DHT22;11380;50.822;15.790;2023-03-18T09:38:15;13.20;99.90
22426;DHT22;11380;50.822;15.790;2023-03-18T09:54:35;12.70;99.90
22426;DHT22;11380;50.822;15.790;2023-03-18T09:59:53;12.80;99.90
22426;DHT22;11380;50.822;15.790;2023-03-18T10:05:00;12.90;99.90
22426;DHT22;11380;50.822;15.790;2023-03-18T10:15:35;13.60;99.90
22426;DHT22;11380;50.822;15.790;2023-03-18T10:26:34;14.10;99.90
22426;DHT22;11380;50.822;15.790;2023-03-18T10:42:53;14.20;1.00
22426;DHT22;11380;50.822;15.790;2023-03-18T10:48:03;14.40;99.90
22426;DHT22;11380;50.822;15.790;2023-03-18T10:53:39;14.60;1.00
22426;DHT22;11380;50.822;15.790;2023-03-18T10:58:49;14.30;99.90
22426;DHT22;11380;50.822;15.790;2023-03-18T11:04:00;14.50;1.00
22426;DHT22;11380;50.822;15.790;2023-03-18T11:09:11;14.70;99.90
22426;DHT22;11380;50.822;15.790;2023-03-18T11:14:25;14.70;99.90
22426;DHT22;11380;50.822;15.790;2023-03-18T11:19:45;14.70;99.90
22426;DHT22;11380;50.822;15.790;2023-03-18T11:25:14;14.50;99.90
22426;DHT22;11380;50.822;15.790;2023-03-18T11:30:28;14.60;1.00
22426;DHT22;11380;50.822;15.790;2023-03-18T11:35:50;14.70;99.90
22426;DHT22;11380;50.822;15.790;2023-03-18T11:41:12;15.40;99.90
22426;DHT22;11380;50.822;15.790;2023-03-18T11:46:32;15.40;99.90
22426;DHT22;11380;50.822;15.790;2023-03-18T11:51:39;15.50;99.90
22426;DHT22;11380;50.822;15.790;2023-03-18T12:02:56;15.00;1.00
22426;DHT22;11380;50.822;15.790;2023-03-18T12:08:39;14.80;1.00
22426;DHT22;11380;50.822;15.790;2023-03-18T12:19:36;14.30;1.00
22426;DHT22;11380;50.822;15.790;2023-03-18T12:25:21;13.90;1.00
22426;DHT22;11380;50.822;15.790;2023-03-18T12:36:22;14.60;1.00
22426;DHT22;11380;50.822;15.790;2023-03-18T12:41:37;14.50;1.00
22426;DHT22;11380;50.822;15.790;2023-03-18T12:47:14;14.40;1.00
22426;DHT22;11380;50.822;15.790;2023-03-18T12:52:30;14.00;1.00
22426;DHT22;11380;50.822;15.790;2023-03-18T13:03:05;13.70;1.00
22426;DHT22;11380;50.822;15.790;2023-03-18T13:08:24;13.90;1.00
22426;DHT22;11380;50.822;15.790;2023-03-18T13:13:35;14.10;1.00
22426;DHT22;11380;50.822;15.790;2023-03-18T13:18:44;14.00;1.00
22426;DHT22;11380;50.822;15.790;2023-03-18T13:29:48;13.90;1.00
22426;DHT22;11380;50.822;15.790;2023-03-18T13:46:22;13.40;1.00
22426;DHT22;11380;50.822;15.790;2023-03-18T13:56:50;13.30;1.00
22426;DHT22;11380;50.822;15.790;2023-03-18T14:07:44;13.20;1.00
22426;DHT22;11380;50.822;15.790;2023-03-18T14:12:47;13.30;1.00
22426;DHT22;11380;50.822;15.790;2023-03-18T14:17:55;13.40;1.00
22426;DHT22;11380;50.822;15.790;2023-03-18T14:23:32;13.50;1.00
22426;DHT22;11380;50.822;15.790;2023-03-18T14:28:47;13.20;1.00
22426;DHT22;11380;50.822;15.790;2023-03-18T14:34:01;13.20;1.00
22426;DHT22;11380;50.822;15.790;2023-03-18T14:39:36;13.40;1.00
22426;DHT22;11380;50.822;15.790;2023-03-18T14:44:55;13.30;1.00
22426;DHT22;11380;50.822;15.790;2023-03-18T14:55:39;13.00;1.00
22426;DHT22;11380;50.822;15.790;2023-03-18T15:00:53;12.80;1.00
22426;DHT22;11380;50.822;15.790;2023-03-18T15:06:16;12.70;1.00
22426;DHT22;11380;50.822;15.790;2023-03-18T15:11:28;12.50;1.00
22426;DHT22;11380;50.822;15.790;2023-03-18T15:16:38;12.40;1.00
22426;DHT22;11380;50.822;15.790;2023-03-18T15:21:45;12.40;1.00
22426;DHT22;11380;50.822;15.790;2023-03-18T15:26:57;12.30;1.00
22426;DHT22;11380;50.822;15.790;2023-03-18T15:32:24;12.20;1.00
22426;DHT22;11380;50.822;15.790;2023-03-18T15:37:36;11.90;1.00
22426;DHT22;11380;50.822;15.790;2023-03-18T15:42:49;11.80;1.00
22426;DHT22;11380;50.822;15.790;2023-03-18T15:48:03;11.80;1.00
22426;DHT22;11380;50.822;15.790;2023-03-18T15:53:21;11.70;1.00
22426;DHT22;11380;50.822;15.790;2023-03-18T15:58:37;11.60;1.00
22426;DHT22;11380;50.822;15.790;2023-03-18T16:03:46;11.50;1.00
22426;DHT22;11380;50.822;15.790;2023-03-18T16:08:54;11.30;1.00
22426;DHT22;11380;50.822;15.790;2023-03-18T16:14:01;11.20;1.00
22426;DHT22;11380;50.822;15.790;2023-03-18T16:19:27;11.20;1.00
22426;DHT22;11380;50.822;15.790;2023-03-18T16:24:32;11.10;1.00
22426;DHT22;11380;50.822;15.790;2023-03-18T16:29:39;11.20;1.00
22426;DHT22;11380;50.822;15.790;2023-03-18T16:34:45;11.20;1.00
22426;DHT22;11380;50.822;15.790;2023-03-18T16:39:54;11.30;1.00
22426;DHT22;11380;50.822;15.790;2023-03-18T16:45:01;11.00;1.00
22426;DHT22;11380;50.822;15.790;2023-03-18T16:50:19;10.90;1.00
22426;DHT22;11380;50.822;15.790;2023-03-18T16:55:25;10.90;1.00
22426;DHT22;11380;50.822;15.790;2023-03-18T17:00:33;10.80;1.00
22426;DHT22;11380;50.822;15.790;2023-03-18T17:05:41;10.60;1.00
22426;DHT22;11380;50.822;15.790;2023-03-18T17:10:53;10.50;1.00
22426;DHT22;11380;50.822;15.790;2023-03-18T17:16:01;10.30;1.00
22426;DHT22;11380;50.822;15.790;2023-03-18T17:21:10;10.40;1.00
22426;DHT22;11380;50.822;15.790;2023-03-18T17:26:17;10.00;1.00
22426;DHT22;11380;50.822;15.790;2023-03-18T17:31:25;10.00;1.00
22426;DHT22;11380;50.822;15.790;2023-03-18T17:36:32;9.90;1.00
22426;DHT22;11380;50.822;15.790;2023-03-18T17:41:40;9.70;1.00
22426;DHT22;11380;50.822;15.790;2023-03-18T17:46:48;9.60;1.00
22426;DHT22;11380;50.822;15.790;2023-03-18T17:51:59;9.50;1.00
22426;DHT22;11380;50.822;15.790;2023-03-18T17:57:12;9.40;99.90
22426;DHT22;11380;50.822;15.790;2023-03-18T18:02:25;9.30;1.00
22426;DHT22;11380;50.822;15.790;2023-03-18T18:07:34;9.20;1.00
22426;DHT22;11380;50.822;15.790;2023-03-18T18:12:45;9.10;1.00
22426;DHT22;11380;50.822;15.790;2023-03-18T18:17:53;8.90;99.90
22426;DHT22;11380;50.822;15.790;2023-03-18T18:23:00;8.80;99.90
22426;DHT22;11380;50.822;15.790;2023-03-18T18:28:13;8.70;99.90
22426;DHT22;11380;50.822;15.790;2023-03-18T18:33:17;8.70;99.90
22426;DHT22;11380;50.822;15.790;2023-03-18T18:38:23;8.50;99.90
22426;DHT22;11380;50.822;15.790;2023-03-18T18:43:31;8.40;99.90
22426;DHT22;11380;50.822;15.790;2023-03-18T18:48:38;8.40;99.90
22426;DHT22;11380;50.822;15.790;2023-03-18T18:53:45;8.30;99.90
22426;DHT22;11380;50.822;15.790;2023-03-18T18:58:52;8.00;99.90
22426;DHT22;11380;50.822;15.790;2023-03-18T19:04:00;7.90;99.90
22426;DHT22;11380;50.822;15.790;2023-03-18T19:09:17;7.60;99.90
22426;DHT22;11380;50.822;15.790;2023-03-18T19:14:27;7.40;99.90
22426;DHT22;11380;50.822;15.790;2023-03-18T19:19:35;7.10;99.90
22426;DHT22;11380;50.822;15.790;2023-03-18T19:24:42;6.90;99.90
22426;DHT22;11380;50.822;15.790;2023-03-18T19:29:53;6.40;90.30
22426;DHT22;11380;50.822;15.790;2023-03-18T19:35:01;6.00;1.00
22426;DHT22;11380;50.822;15.790;2023-03-18T19:40:25;6.10;1.00
22426;DHT22;11380;50.822;15.790;2023-03-18T19:45:33;6.20;99.90
22426;DHT22;11380;50.822;15.790;2023-03-18T19:50:41;6.00;99.90
22426;DHT22;11380;50.822;15.790;2023-03-18T19:55:48;6.00;3.40
22426;DHT22;11380;50.822;15.790;2023-03-18T20:00:55;6.20;1.00
22426;DHT22;11380;50.822;15.790;2023-03-18T20:06:04;6.10;1.00
22426;DHT22;11380;50.822;15.790;2023-03-18T20:11:14;5.90;1.00
22426;DHT22;11380;50.822;15.790;2023-03-18T20:16:22;5.90;1.00
22426;DHT22;11380;50.822;15.790;2023-03-18T20:21:32;6.00;99.90
22426;DHT22;11380;50.822;15.790;2023-03-18T20:26:40;6.00;99.90
22426;DHT22;11380;50.822;15.790;2023-03-18T20:31:48;5.60;99.90
22426;DHT22;11380;50.822;15.790;2023-03-18T20:36:56;5.50;99.90
22426;DHT22;11380;50.822;15.790;2023-03-18T20:42:07;5.30;99.90
22426;DHT22;11380;50.822;15.790;2023-03-18T20:47:15;5.20;1.00
22426;DHT22;11380;50.822;15.790;2023-03-18T20:52:28;5.30;1.00
22426;DHT22;11380;50.822;15.790;2023-03-18T20:57:37;5.20;1.00
22426;DHT22;11380;50.822;15.790;2023-03-18T21:02:46;5.10;1.00
22426;DHT22;11380;50.822;15.790;2023-03-18T21:07:55;5.00;99.90
22426;DHT22;11380;50.822;15.790;2023-03-18T21:13:27;4.40;24.30
22426;DHT22;11380;50.822;15.790;2023-03-18T21:18:34;4.30;99.90
22426;DHT22;11380;50.822;15.790;2023-03-18T21:23:41;4.50;99.90
22426;DHT22;11380;50.822;15.790;2023-03-18T21:28:49;4.60;99.90
22426;DHT22;11380;50.822;15.790;2023-03-18T21:33:56;4.40;99.90
22426;DHT22;11380;50.822;15.790;2023-03-18T21:39:04;4.60;99.90
22426;DHT22;11380;50.822;15.790;2023-03-18T21:44:11;4.70;99.90
22426;DHT22;11380;50.822;15.790;2023-03-18T21:49:18;4.10;99.90
22426;DHT22;11380;50.822;15.790;2023-03-18T21:54:25;3.90;99.90
22426;DHT22;11380;50.822;15.790;2023-03-18T21:59:33;3.80;99.90
22426;DHT22;11380;50.822;15.790;2023-03-18T22:04:40;3.00;1.00
22426;DHT22;11380;50.822;15.790;2023-03-18T22:09:47;3.40;1.00
22426;DHT22;11380;50.822;15.790;2023-03-18T22:14:55;3.70;1.00
22426;DHT22;11380;50.822;15.790;2023-03-18T22:20:04;3.80;1.00
22426;DHT22;11380;50.822;15.790;2023-03-18T22:25:24;3.70;1.00
22426;DHT22;11380;50.822;15.790;2023-03-18T22:30:37;3.80;1.00
22426;DHT22;11380;50.822;15.790;2023-03-18T22:35:49;3.70;1.00
22426;DHT22;11380;50.822;15.790;2023-03-18T22:40:56;3.70;1.00
22426;DHT22;11380;50.822;15.790;2023-03-18T22:46:05;3.60;1.00
22426;DHT22;11380;50.822;15.790;2023-03-18T22:51:25;3.90;1.00
22426;DHT22;11380;50.822;15.790;2023-03-18T22:56:28;3.80;1.00
22426;DHT22;11380;50.822;15.790;2023-03-18T23:01:36;3.30;1.00
22426;DHT22;11380;50.822;15.790;2023-03-18T23:06:43;3.20;1.00
22426;DHT22;11380;50.822;15.790;2023-03-18T23:11:51;3.60;1.00
22426;DHT22;11380;50.822;15.790;2023-03-18T23:16:58;3.60;1.00
22426;DHT22;11380;50.822;15.790;2023-03-18T23:22:04;3.50;1.00
22426;DHT22;11380;50.822;15.790;2023-03-18T23:27:12;2.70;1.00
22426;DHT22;11380;50.822;15.790;2023-03-18T23:32:19;3.10;1.00
22426;DHT22;11380;50.822;15.790;2023-03-18T23:37:27;2.80;1.00
22426;DHT22;11380;50.822;15.790;2023-03-18T23:42:36;2.90;1.00
22426;DHT22;11380;50.822;15.790;2023-03-18T23:47:43;3.00;1.00
22426;DHT22;11380;50.822;15.790;2023-03-18T23:52:51;3.10;1.00
22426;DHT22;11380;50.822;15.790;2023-03-18T23:57:58;3.10;1.00
